Time;durP1;ratioP1;P1;durP2;ratioP2;P2;SDS_P1;SDS_P2;PMS_P1;PMS_P2;Temp;Humidity;BMP_temperature;BMP_pressure;BME280_temperature;BME280_humidity;BME280_pressure;Samples;Min_cycle;Max_cycle;Signal;HPM_P1;HPM_P2
2022/06/26 00:01:01;;;;;;;2.27;0.90;;;;;;;18.80;100.00;99758.44;5036911;28;20228;-70
2022/06/26 00:03:28;;;;;;;2.50;0.80;;;;;;;18.72;100.00;99761.75;5052407;28;20544;-71
2022/06/26 00:05:53;;;;;;;7.87;1.00;;;;;;;18.73;100.00;99754.75;5052104;28;20200;-70
2022/06/26 00:08:19;;;;;;;0.80;0.80;;;;;;;18.62;100.00;99753.16;5053559;28;20681;-69
2022/06/26 00:10:47;;;;;;;2.33;0.90;;;;;;;18.57;100.00;99750.16;5038255;28;20563;-69
2022/06/26 00:13:13;;;;;;;2.20;1.00;;;;;;;18.42;100.00;99755.88;5041600;28;20190;-70
2022/06/26 00:15:39;;;;;;;0.80;0.80;;;;;;;18.24;100.00;99745.38;5052737;28;20186;-69
2022/06/26 00:18:04;;;;;;;2.37;1.00;;;;;;;18.21;100.00;99741.25;5052984;28;20625;-70
2022/06/26 00:20:30;;;;;;;1.00;0.97;;;;;;;18.23;100.00;99728.09;5042100;28;20644;-70
2022/06/26 00:22:55;;;;;;;1.47;1.30;;;;;;;18.25;100.00;99730.59;5052029;28;20718;-68
2022/06/26 00:25:20;;;;;;;2.63;0.83;;;;;;;18.33;100.00;99731.50;5051725;28;20181;-69
2022/06/26 00:27:46;;;;;;;1.57;1.20;;;;;;;18.39;100.00;99730.09;5051252;28;20268;-69
2022/06/26 00:30:13;;;;;;;2.07;1.30;;;;;;;18.55;100.00;99726.88;5040727;28;20174;-69
2022/06/26 00:32:38;;;;;;;1.17;0.90;;;;;;;18.70;100.00;99725.44;5049282;28;20518;-70
2022/06/26 00:35:04;;;;;;;1.17;1.00;;;;;;;18.71;100.00;99726.25;5052781;28;20184;-69
2022/06/26 00:37:29;;;;;;;1.00;1.00;;;;;;;18.80;100.00;99727.16;5052520;28;20193;-69
2022/06/26 00:39:55;;;;;;;1.00;1.00;;;;;;;18.86;100.00;99727.38;5051006;28;20177;-68
2022/06/26 00:42:20;;;;;;;1.20;1.07;;;;;;;18.95;100.00;99730.94;5041098;28;20225;-69
2022/06/26 00:44:45;;;;;;;2.07;1.20;;;;;;;19.03;100.00;99730.22;5051046;28;20700;-69
2022/06/26 00:47:11;;;;;;;2.50;1.17;;;;;;;19.06;100.00;99721.28;5052606;28;20544;-69
2022/06/26 00:49:36;;;;;;;3.97;1.20;;;;;;;19.18;100.00;99726.09;5052352;28;20268;-69
2022/06/26 00:52:01;;;;;;;1.50;1.40;;;;;;;19.19;100.00;99719.94;5026852;28;20718;-69
2022/06/26 00:54:28;;;;;;;1.83;1.10;;;;;;;19.18;100.00;99722.69;5052687;28;20200;-70
2022/06/26 00:56:57;;;;;;;2.67;1.20;;;;;;;19.21;100.00;99722.38;5038503;28;20336;-68
2022/06/26 00:59:24;;;;;;;1.83;1.33;;;;;;;19.28;100.00;99723.44;5038350;28;20184;-69
2022/06/26 01:01:50;;;;;;;3.07;1.40;;;;;;;19.36;100.00;99717.47;5041052;28;20224;-69
2022/06/26 01:04:16;;;;;;;1.60;1.50;;;;;;;19.24;100.00;99727.31;5052195;28;20178;-69
2022/06/26 01:06:42;;;;;;;1.30;1.20;;;;;;;19.28;100.00;99720.00;5052287;28;20178;-68
2022/06/26 01:09:07;;;;;;;1.70;1.60;;;;;;;19.21;100.00;99719.78;5050141;28;20665;-69
2022/06/26 01:11:32;;;;;;;1.50;1.20;;;;;;;19.21;100.00;99722.38;5040569;28;20232;-69
2022/06/26 01:13:58;;;;;;;1.07;1.00;;;;;;;18.98;100.00;99715.00;5046434;28;20185;-69
2022/06/26 01:16:24;;;;;;;1.30;1.20;;;;;;;19.03;100.00;99720.59;5050469;28;20624;-69
2022/06/26 01:18:52;;;;;;;3.40;1.37;;;;;;;19.19;100.00;99725.16;5050315;28;20678;-70
2022/06/26 01:21:19;;;;;;;2.47;1.20;;;;;;;19.25;100.00;99726.34;5032707;28;20232;-68
2022/06/26 01:23:45;;;;;;;3.00;1.43;;;;;;;19.22;100.00;99725.81;5044154;28;20198;-70
2022/06/26 01:26:10;;;;;;;1.37;1.27;;;;;;;19.26;100.00;99727.16;5043806;28;20181;-69
2022/06/26 01:28:35;;;;;;;1.30;1.20;;;;;;;19.23;100.00;99724.88;5051124;28;20333;-68
2022/06/26 01:31:01;;;;;;;2.20;1.23;;;;;;;19.26;100.00;99729.75;5040061;28;20279;-70
2022/06/26 01:33:26;;;;;;;2.80;1.40;;;;;;;19.12;100.00;99733.72;5051059;28;20212;-68
2022/06/26 01:35:53;;;;;;;1.40;1.30;;;;;;;19.16;100.00;99738.50;5051672;28;20219;-69
2022/06/26 01:38:21;;;;;;;1.37;1.20;;;;;;;19.19;100.00;99743.38;5051496;28;20589;-69
2022/06/26 01:40:47;;;;;;;2.97;1.57;;;;;;;19.14;100.00;99740.41;5040519;28;20567;-68
2022/06/26 01:43:16;;;;;;;1.77;1.40;;;;;;;19.12;100.00;99754.56;5050492;28;20212;-70
2022/06/26 01:45:47;;;;;;;3.53;1.50;;;;;;;19.12;100.00;99755.38;5051457;28;20602;-70
2022/06/26 01:48:14;;;;;;;1.83;1.40;;;;;;;19.05;100.00;99758.72;5051658;28;20259;-69
2022/06/26 01:50:40;;;;;;;1.40;1.23;;;;;;;18.94;100.00;99770.16;5040266;28;20232;-69
2022/06/26 01:53:05;;;;;;;3.63;1.20;;;;;;;19.06;100.00;99776.00;5050769;28;20251;-69
2022/06/26 01:55:31;;;;;;;1.33;1.10;;;;;;;19.00;100.00;99780.84;5048511;28;20204;-68
2022/06/26 01:58:00;;;;;;;2.50;1.43;;;;;;;18.92;100.00;99779.94;5040007;28;20262;-70
2022/06/26 02:00:26;;;;;;;2.93;0.90;;;;;;;18.79;100.00;99781.06;5040408;28;20232;-69
2022/06/26 02:02:51;;;;;;;2.43;1.10;;;;;;;18.77;100.00;99783.00;5050269;28;20205;-69
2022/06/26 02:05:16;;;;;;;2.30;1.17;;;;;;;18.81;100.00;99781.72;5051583;28;20184;-69
2022/06/26 02:07:42;;;;;;;0.80;0.80;;;;;;;18.78;100.00;99792.44;5050996;28;20256;-69
2022/06/26 02:15:35;;;;;;;7.73;1.20;;;;;;;18.64;100.00;99788.53;5051026;28;20553;-69
2022/06/26 02:18:00;;;;;;;2.40;1.13;;;;;;;18.69;100.00;99785.47;5035434;28;20178;-69
2022/06/26 02:20:26;;;;;;;1.43;1.20;;;;;;;18.67;100.00;99792.66;5040229;28;20232;-68
2022/06/26 02:22:51;;;;;;;1.27;1.00;;;;;;;18.63;100.00;99788.66;5050136;28;20627;-69
2022/06/26 02:25:16;;;;;;;1.30;1.03;;;;;;;18.63;100.00;99801.69;5049553;28;20279;-70
2022/06/26 02:27:42;;;;;;;3.60;1.17;;;;;;;18.58;100.00;99799.53;5050146;28;20184;-70
2022/06/26 02:30:07;;;;;;;2.57;1.10;;;;;;;18.63;100.00;99805.13;5038915;28;20181;-70
2022/06/26 02:32:33;;;;;;;1.10;1.00;;;;;;;18.56;100.00;99801.44;5029647;28;20288;-69
2022/06/26 02:34:58;;;;;;;6.60;1.10;;;;;;;18.60;100.00;99809.81;5043072;28;20326;-69
2022/06/26 02:37:23;;;;;;;4.50;1.00;;;;;;;18.61;100.00;99798.44;5051111;28;20234;-70
2022/06/26 02:39:49;;;;;;;1.43;1.07;;;;;;;18.66;100.00;99804.81;5051618;28;21005;-69
2022/06/26 02:42:14;;;;;;;2.97;0.93;;;;;;;18.57;100.00;99791.84;5028286;28;20233;-70
2022/06/26 02:44:39;;;;;;;2.10;1.20;;;;;;;18.73;100.00;99778.19;5055015;28;20173;-69
2022/06/26 02:47:04;;;;;;;1.13;0.93;;;;;;;18.65;100.00;99790.16;5055065;28;20199;-70
2022/06/26 02:49:30;;;;;;;1.40;0.93;;;;;;;18.68;100.00;99787.28;5053970;28;20201;-69
2022/06/26 02:51:55;;;;;;;1.40;0.90;;;;;;;18.58;100.00;99783.06;5043504;28;20323;-70
2022/06/26 02:54:21;;;;;;;1.10;0.90;;;;;;;18.61;100.00;99781.00;5052044;28;20261;-70
2022/06/26 02:56:46;;;;;;;1.20;0.97;;;;;;;18.76;100.00;99770.13;5040585;28;20209;-70
2022/06/26 02:59:12;;;;;;;0.77;0.77;;;;;;;18.78;100.00;99766.41;5053586;28;20260;-70
2022/06/26 03:01:37;;;;;;;3.47;0.70;;;;;;;18.89;100.00;99768.00;5009393;28;20222;-70
2022/06/26 03:04:02;;;;;;;1.87;1.20;;;;;;;18.86;100.00;99768.25;5050658;28;20221;-70
2022/06/26 03:06:28;;;;;;;1.33;0.90;;;;;;;18.95;100.00;99779.63;5054484;28;20182;-70
2022/06/26 03:08:53;;;;;;;2.07;1.00;;;;;;;18.80;100.00;99780.06;5053919;28;20197;-70
2022/06/26 03:11:18;;;;;;;2.43;1.00;;;;;;;18.69;100.00;99770.69;5034742;28;20331;-70
2022/06/26 03:13:43;;;;;;;1.87;1.20;;;;;;;18.56;100.00;99778.00;5052269;28;20186;-69
2022/06/26 03:16:09;;;;;;;1.37;0.90;;;;;;;18.65;100.00;99786.75;5041768;28;21002;-69
2022/06/26 03:18:34;;;;;;;0.80;0.80;;;;;;;18.45;100.00;99781.59;5045555;28;20208;-70
2022/06/26 03:20:59;;;;;;;1.90;1.17;;;;;;;18.31;100.00;99784.69;5043184;28;20229;-69
2022/06/26 03:24:01;;;;;;;0.73;0.73;;;;;;;18.38;100.00;99789.19;5044159;28;20189;-69
2022/06/26 03:26:10;;;;;;;0.80;0.80;;;;;;;18.29;100.00;99789.22;5053186;28;20193;-69
2022/06/26 03:28:35;;;;;;;1.03;0.93;;;;;;;18.42;100.00;99781.06;5053838;28;20173;-69
2022/06/26 03:31:00;;;;;;;3.17;1.50;;;;;;;18.48;100.00;99778.72;5016932;28;20358;-70
2022/06/26 03:33:26;;;;;;;1.90;1.03;;;;;;;18.55;100.00;99779.78;5053177;28;20189;-70
2022/06/26 03:35:51;;;;;;;1.70;1.20;;;;;;;18.42;100.00;99783.66;5053730;28;20181;-71
2022/06/26 03:38:16;;;;;;;1.67;1.07;;;;;;;18.26;100.00;99779.06;5053861;28;20194;-70
2022/06/26 03:40:42;;;;;;;1.60;1.30;;;;;;;18.10;100.00;99783.09;5042961;28;20225;-69
2022/06/26 03:43:11;;;;;;;2.13;1.10;;;;;;;18.14;100.00;99792.25;5041357;28;20312;-69
2022/06/26 03:45:38;;;;;;;0.90;0.90;;;;;;;18.22;100.00;99794.97;5053680;28;20173;-69
2022/06/26 03:48:03;;;;;;;1.20;1.03;;;;;;;18.39;100.00;99787.38;5053845;28;20177;-69
2022/06/26 03:50:29;;;;;;;1.07;0.97;;;;;;;18.36;100.00;99793.69;5041967;28;20225;-69
2022/06/26 03:52:54;;;;;;;1.10;1.00;;;;;;;18.46;100.00;99792.88;5039384;28;20755;-69
2022/06/26 03:55:19;;;;;;;1.33;1.10;;;;;;;18.34;100.00;99790.41;5051080;28;20177;-70
2022/06/26 03:57:44;;;;;;;1.13;1.00;;;;;;;18.32;100.00;99787.13;5039184;28;20197;-70
2022/06/26 04:00:10;;;;;;;2.53;1.20;;;;;;;18.25;100.00;99799.06;5042697;28;20220;-69
2022/06/26 04:02:37;;;;;;;0.80;0.80;;;;;;;18.39;100.00;99803.84;5052149;28;20607;-69
2022/06/26 04:05:04;;;;;;;2.73;1.20;;;;;;;18.32;100.00;99794.13;5053328;28;20178;-69
2022/06/26 04:07:30;;;;;;;3.37;1.30;;;;;;;18.49;100.00;99802.97;5053029;28;20554;-69
2022/06/26 04:09:55;;;;;;;3.43;1.57;;;;;;;18.64;100.00;99814.59;5052906;28;20225;-67
2022/06/26 04:12:21;;;;;;;3.07;1.47;;;;;;;18.97;100.00;99806.38;5041603;28;20306;-69
2022/06/26 04:14:47;;;;;;;7.17;1.43;;;;;;;19.00;100.00;99801.69;5053760;28;20185;-69
2022/06/26 04:17:13;;;;;;;1.73;1.00;;;;;;;18.85;100.00;99803.94;5053283;28;20231;-70
2022/06/26 04:19:38;;;;;;;2.87;1.30;;;;;;;18.96;100.00;99805.53;5052208;28;20189;-69
2022/06/26 04:22:04;;;;;;;1.20;1.10;;;;;;;19.15;100.00;99806.41;5039355;28;20304;-71
2022/06/26 04:24:29;;;;;;;1.93;1.00;;;;;;;19.25;100.00;99809.78;5040623;28;20188;-70
2022/06/26 04:26:55;;;;;;;2.20;0.90;;;;;;;19.06;100.00;99810.69;5031413;28;20586;-70
2022/06/26 04:29:20;;;;;;;1.70;1.17;;;;;;;18.97;100.00;99811.59;5047433;28;20551;-69
2022/06/26 04:31:46;;;;;;;2.03;1.17;;;;;;;19.05;100.00;99819.47;5055499;28;20260;-71
2022/06/26 04:34:11;;;;;;;2.37;1.17;;;;;;;18.98;100.00;99826.28;5051423;28;20177;-70
2022/06/26 04:36:37;;;;;;;1.63;1.10;;;;;;;19.09;100.00;99828.69;5051265;28;20182;-71
2022/06/26 04:39:02;;;;;;;2.20;1.10;;;;;;;19.11;100.00;99825.91;5052541;28;20191;-71
2022/06/26 04:41:38;;;;;;;1.93;1.30;;;;;;;19.11;100.00;99825.91;5053071;28;20295;-70
2022/06/26 04:44:06;;;;;;;1.93;1.30;;;;;;;19.17;100.00;99822.72;5051288;28;20601;-69
2022/06/26 04:46:32;;;;;;;3.87;1.20;;;;;;;19.14;100.00;99828.25;5052322;28;20572;-70
2022/06/26 04:48:58;;;;;;;1.43;1.00;;;;;;;19.01;100.00;99832.00;5052192;28;20181;-69
2022/06/26 04:51:23;;;;;;;1.27;1.00;;;;;;;18.88;100.00;99834.09;5029619;28;20233;-70
2022/06/26 04:53:48;;;;;;;3.90;1.40;;;;;;;18.91;100.00;99836.44;5047831;28;20523;-69
2022/06/26 04:56:14;;;;;;;2.23;1.10;;;;;;;19.07;100.00;99841.03;5052440;28;20667;-68
2022/06/26 04:58:39;;;;;;;1.33;1.10;;;;;;;19.19;100.00;99828.63;5052183;28;20992;-69
2022/06/26 05:01:04;;;;;;;1.37;1.20;;;;;;;19.25;100.00;99830.66;5040848;28;20240;-69
2022/06/26 05:03:30;;;;;;;2.50;1.20;;;;;;;19.44;100.00;99821.84;5051218;28;20296;-69
2022/06/26 05:05:55;;;;;;;1.87;1.47;;;;;;;19.54;100.00;99836.63;5050818;28;20184;-68
2022/06/26 05:08:21;;;;;;;1.73;1.03;;;;;;;19.46;100.00;99838.19;5052653;28;20227;-69
2022/06/26 05:10:46;;;;;;;2.00;1.10;;;;;;;19.39;100.00;99841.50;5040982;28;20648;-70
2022/06/26 05:13:11;;;;;;;3.00;1.33;;;;;;;19.48;100.00;99851.88;5051498;28;20652;-69
2022/06/26 05:15:38;;;;;;;2.20;0.80;;;;;;;19.57;100.00;99849.38;5051717;28;20334;-70
2022/06/26 05:18:03;;;;;;;2.20;1.10;;;;;;;19.72;100.00;99860.09;5050462;28;20646;-69
2022/06/26 05:20:29;;;;;;;2.23;1.27;;;;;;;19.59;100.00;99861.28;5038945;28;20221;-70
2022/06/26 05:22:54;;;;;;;4.13;1.07;;;;;;;19.77;100.00;99855.25;5037613;28;20206;-69
2022/06/26 05:25:20;;;;;;;3.27;1.17;;;;;;;19.96;100.00;99846.50;5051851;28;20636;-68
2022/06/26 05:27:45;;;;;;;2.43;0.97;;;;;;;19.74;100.00;99848.56;5051653;28;20220;-68
2022/06/26 05:30:10;;;;;;;2.20;0.90;;;;;;;19.82;100.00;99861.69;5040914;28;20227;-68
2022/06/26 05:32:36;;;;;;;1.10;0.87;;;;;;;20.10;100.00;99860.78;5034961;28;20212;-69
2022/06/26 05:35:01;;;;;;;0.80;0.80;;;;;;;20.11;100.00;99859.81;5050582;28;20185;-69
2022/06/26 05:37:27;;;;;;;2.10;1.03;;;;;;;20.30;99.87;99871.88;5051546;28;20169;-70
2022/06/26 05:39:52;;;;;;;1.83;0.80;;;;;;;20.55;97.34;99865.00;5050045;28;20192;-68
2022/06/26 05:42:17;;;;;;;3.83;1.10;;;;;;;20.83;93.93;99866.66;5040268;28;20615;-68
2022/06/26 05:44:42;;;;;;;3.27;1.00;;;;;;;20.40;95.35;99863.94;5051640;28;20192;-69
2022/06/26 05:47:08;;;;;;;2.47;1.03;;;;;;;20.47;96.20;99873.59;5051215;28;20201;-69
2022/06/26 05:49:33;;;;;;;2.47;0.90;;;;;;;20.76;94.95;99876.91;5051047;28;20182;-69
2022/06/26 05:51:58;;;;;;;1.90;0.83;;;;;;;21.39;90.51;99888.75;5039804;28;20312;-70
2022/06/26 05:54:24;;;;;;;0.80;0.80;;;;;;;21.81;85.49;99896.75;5049436;28;20655;-68
2022/06/26 05:56:49;;;;;;;2.83;0.97;;;;;;;21.40;87.73;99913.16;5050795;28;20551;-69
2022/06/26 05:59:15;;;;;;;0.97;0.90;;;;;;;21.14;89.96;99921.88;5050848;28;20201;-69
2022/06/26 06:01:40;;;;;;;2.00;0.90;;;;;;;21.21;88.26;99919.44;5039989;28;20235;-67
2022/06/26 06:04:06;;;;;;;4.10;1.10;;;;;;;21.49;86.44;99930.50;5050896;28;20208;-68
2022/06/26 06:06:31;;;;;;;1.10;0.73;;;;;;;22.44;80.80;99923.28;5050074;28;20276;-68
2022/06/26 06:08:57;;;;;;;2.87;0.80;;;;;;;23.39;75.80;99927.78;5050920;28;20264;-68
2022/06/26 06:11:22;;;;;;;1.43;0.70;;;;;;;24.22;67.58;99922.03;5040159;28;20221;-69
2022/06/26 06:13:47;;;;;;;2.10;0.63;;;;;;;25.16;61.03;99926.81;5050455;28;20628;-68
2022/06/26 06:16:13;;;;;;;3.50;0.70;;;;;;;26.10;55.28;99920.75;5051074;28;20188;-69
2022/06/26 06:18:38;;;;;;;2.50;0.80;;;;;;;27.32;52.13;99911.75;5047648;28;20181;-68
2022/06/26 06:21:03;;;;;;;2.20;1.00;;;;;;;28.00;47.00;99916.16;5027673;28;20260;-68
2022/06/26 06:23:30;;;;;;;3.90;0.80;;;;;;;26.51;51.38;99921.88;5036691;28;20208;-69
2022/06/26 06:25:55;;;;;;;0.65;0.65;;;;;;;25.97;54.05;99919.81;5050646;28;20181;-69
2022/06/26 06:28:21;;;;;;;1.40;0.70;;;;;;;25.52;54.07;99925.25;5050547;28;20543;-70
2022/06/26 06:30:46;;;;;;;0.90;0.52;;;;;;;24.71;57.65;99918.97;5026975;28;20234;-69
2022/06/26 06:33:11;;;;;;;1.30;0.50;;;;;;;24.18;61.46;99924.19;5035195;28;20646;-69
2022/06/26 06:35:37;;;;;;;3.05;1.00;;;;;;;24.09;62.25;99935.75;5048959;28;20436;-68
2022/06/26 06:38:02;;;;;;;1.65;0.70;;;;;;;23.43;65.41;99944.84;5050722;28;20682;-70
2022/06/26 06:40:27;;;;;;;1.43;0.80;;;;;;;23.24;66.21;99940.00;5043209;28;20621;-68
2022/06/26 06:42:53;;;;;;;4.23;1.00;;;;;;;23.68;65.51;99945.50;5055438;28;20229;-69
2022/06/26 06:45:18;;;;;;;2.50;0.90;;;;;;;24.49;57.61;99936.41;5048801;28;20281;-69
2022/06/26 06:47:43;;;;;;;0.93;0.60;;;;;;;25.60;54.30;99949.66;5048545;28;20524;-69
2022/06/26 06:50:09;;;;;;;0.85;0.70;;;;;;;26.10;52.57;99962.13;5026315;28;20268;-69
2022/06/26 06:52:35;;;;;;;0.50;0.50;;;;;;;27.13;48.04;99963.44;5053139;28;20225;-68
2022/06/26 06:55:01;;;;;;;2.25;0.82;;;;;;;27.83;47.25;99969.38;5031147;28;20186;-68
2022/06/26 06:57:27;;;;;;;0.55;0.55;;;;;;;29.03;44.60;99970.41;5032523;28;20537;-66
2022/06/26 06:59:52;;;;;;;0.95;0.50;;;;;;;29.70;42.52;99982.59;5048824;28;20256;-65
2022/06/26 07:02:18;;;;;;;3.15;0.98;;;;;;;30.93;39.34;99983.03;4992998;28;20617;-67
2022/06/26 07:04:43;;;;;;;1.48;0.95;;;;;;;31.82;36.07;99990.56;5045361;28;20599;-68
2022/06/26 07:07:08;;;;;;;4.28;0.73;;;;;;;32.70;35.08;100000.63;5040519;28;20176;-68
2022/06/26 07:09:33;;;;;;;1.77;0.65;;;;;;;32.58;35.06;99994.50;5048738;28;20636;-69
2022/06/26 07:11:59;;;;;;;1.08;0.63;;;;;;;34.24;31.82;100004.63;5041538;28;20742;-67
2022/06/26 07:14:24;;;;;;;1.20;0.52;;;;;;;34.58;31.46;100004.59;5044157;28;20191;-68
2022/06/26 07:16:50;;;;;;;0.75;0.50;;;;;;;34.94;30.97;100004.28;5029458;28;20230;-68
2022/06/26 07:19:16;;;;;;;0.73;0.43;;;;;;;34.91;30.44;100002.94;5050310;28;20276;-68
2022/06/26 07:21:43;;;;;;;1.20;0.60;;;;;;;35.60;28.76;100003.44;5041543;28;20231;-68
2022/06/26 07:24:13;;;;;;;1.90;0.70;;;;;;;36.03;27.70;99997.16;5053079;28;20670;-68
2022/06/26 07:26:38;;;;;;;3.28;1.33;;;;;;;35.24;29.23;100009.19;5054086;28;20186;-67
2022/06/26 07:29:04;;;;;;;1.45;0.57;;;;;;;34.01;30.38;100003.69;5052211;28;20251;-68
2022/06/26 07:31:29;;;;;;;0.90;0.60;;;;;;;34.42;29.91;100004.38;5010155;28;20300;-68
2022/06/26 07:34:13;;;;;;;1.02;0.60;;;;;;;34.35;30.56;99998.41;5049120;28;20193;-68
2022/06/26 07:36:45;;;;;;;3.38;0.50;;;;;;;35.32;28.78;100003.41;5054249;28;20237;-68
2022/06/26 07:39:12;;;;;;;1.75;0.70;;;;;;;35.90;28.13;100002.94;5053360;28;20197;-68
2022/06/26 07:41:38;;;;;;;1.42;0.60;;;;;;;36.26;27.88;100005.91;5039266;28;20252;-67
2022/06/26 07:44:04;;;;;;;2.90;0.70;;;;;;;35.13;28.64;100018.13;5038182;28;20205;-68
2022/06/26 07:46:30;;;;;;;0.50;0.40;;;;;;;34.18;30.17;99998.38;5053769;28;20197;-68
2022/06/26 07:48:55;;;;;;;2.10;0.50;;;;;;;33.85;31.25;99992.00;5053473;28;20193;-68
2022/06/26 07:51:21;;;;;;;4.45;0.60;;;;;;;34.00;31.31;99991.44;5042643;28;20646;-68
2022/06/26 07:53:46;;;;;;;1.85;0.75;;;;;;;34.08;31.11;99996.34;5052897;28;20215;-68
2022/06/26 07:56:13;;;;;;;1.85;0.60;;;;;;;34.78;30.25;100000.59;5043866;28;20215;-67
2022/06/26 07:58:38;;;;;;;0.73;0.43;;;;;;;36.25;28.04;100006.94;5045579;28;20260;-67
2022/06/26 08:01:03;;;;;;;0.77;0.60;;;;;;;37.48;26.04;100014.00;5042659;28;20305;-68
2022/06/26 08:03:29;;;;;;;3.83;0.63;;;;;;;37.58;25.52;100014.00;5043675;28;20575;-67
2022/06/26 08:05:54;;;;;;;0.57;0.50;;;;;;;38.02;25.72;100009.22;5052089;28;20648;-68
2022/06/26 08:08:19;;;;;;;1.48;0.80;;;;;;;37.76;25.57;100015.38;5053539;28;20264;-69
2022/06/26 08:10:45;;;;;;;1.27;0.70;;;;;;;35.38;28.80;100006.97;5042268;28;20237;-68
2022/06/26 08:13:10;;;;;;;1.35;0.60;;;;;;;34.79;30.33;100002.22;5040221;28;20189;-68
2022/06/26 08:15:35;;;;;;;1.80;0.70;;;;;;;35.08;29.23;100008.22;5053307;28;20177;-68
2022/06/26 08:18:01;;;;;;;1.42;0.50;;;;;;;36.50;27.61;100009.00;5053390;28;20682;-68
2022/06/26 08:20:27;;;;;;;0.60;0.43;;;;;;;37.54;26.20;100014.84;5042372;28;20257;-68
2022/06/26 08:22:52;;;;;;;0.77;0.60;;;;;;;35.22;27.48;100012.09;5050590;28;20205;-67
2022/06/26 08:25:18;;;;;;;1.10;0.70;;;;;;;35.40;27.80;100012.84;5046179;28;20193;-67
2022/06/26 08:27:43;;;;;;;2.95;0.70;;;;;;;36.97;26.45;100006.59;5031104;28;20189;-67
2022/06/26 08:30:09;;;;;;;0.50;0.38;;;;;;;36.81;26.10;100017.22;5024405;28;20220;-67
2022/06/26 08:32:35;;;;;;;2.75;0.73;;;;;;;36.66;26.10;100012.59;5048041;28;20676;-68
2022/06/26 08:35:02;;;;;;;2.22;0.60;;;;;;;35.78;26.70;100019.13;5033442;28;20182;-68
2022/06/26 08:37:28;;;;;;;1.67;0.68;;;;;;;36.83;25.79;100007.03;5032235;28;20512;-68
2022/06/26 08:39:53;;;;;;;2.28;0.70;;;;;;;36.24;26.64;100009.91;5033642;28;20170;-68
2022/06/26 08:42:20;;;;;;;1.88;0.73;;;;;;;36.69;26.55;100018.50;5022899;28;20244;-69
2022/06/26 08:44:46;;;;;;;1.55;0.57;;;;;;;37.46;25.74;100010.78;5047160;28;20198;-67
2022/06/26 08:47:13;;;;;;;3.10;0.77;;;;;;;38.45;24.42;100009.72;5048837;28;20535;-68
2022/06/26 08:49:40;;;;;;;1.38;0.22;;;;;;;35.73;27.04;100004.91;5048250;28;20599;-67
2022/06/26 08:52:09;;;;;;;0.63;0.50;;;;;;;35.59;27.12;100001.81;5037372;28;20287;-67
2022/06/26 08:54:35;;;;;;;1.88;0.77;;;;;;;35.09;28.36;100003.66;5052290;28;20182;-68
2022/06/26 08:57:01;;;;;;;3.75;0.60;;;;;;;35.07;28.13;100011.94;5052429;28;20220;-68
2022/06/26 08:59:27;;;;;;;1.40;0.50;;;;;;;34.42;28.87;100004.38;5052187;28;20217;-68
2022/06/26 09:01:52;;;;;;;0.80;0.57;;;;;;;33.47;29.82;99994.22;5040928;28;20304;-67
2022/06/26 09:04:18;;;;;;;1.60;0.60;;;;;;;32.63;31.13;99994.59;5052168;28;20664;-67
2022/06/26 09:06:44;;;;;;;1.13;0.50;;;;;;;33.23;29.90;99993.47;5048052;28;20185;-67
2022/06/26 09:09:16;;;;;;;2.55;0.63;;;;;;;34.39;29.21;99998.72;5051700;28;20208;-67
2022/06/26 09:11:42;;;;;;;1.85;0.70;;;;;;;35.34;27.29;100000.47;5029411;28;20666;-67
2022/06/26 09:14:07;;;;;;;0.98;0.68;;;;;;;34.62;28.98;99999.56;5047766;28;20213;-67
2022/06/26 09:16:33;;;;;;;0.73;0.50;;;;;;;33.72;29.75;100003.72;5052534;28;20216;-68
2022/06/26 09:19:13;;;;;;;1.35;0.60;;;;;;;34.84;29.27;100008.41;5051574;28;20186;-68
2022/06/26 09:21:40;;;;;;;1.00;0.50;;;;;;;35.85;27.32;100001.00;5033896;28;20274;-67
2022/06/26 09:24:25;;;;;;;2.85;0.70;;;;;;;37.40;25.82;100001.09;5044616;28;20280;-67
2022/06/26 09:27:10;;;;;;;1.33;0.70;;;;;;;37.79;24.21;100006.78;5051492;28;20201;-68
2022/06/26 09:29:36;;;;;;;2.63;0.55;;;;;;;37.29;24.03;99994.91;5050052;28;20188;-67
2022/06/26 09:32:12;;;;;;;1.60;0.38;;;;;;;36.29;24.34;100000.00;5040796;28;20699;-68
2022/06/26 09:34:45;;;;;;;0.55;0.52;;;;;;;35.46;25.76;99978.97;5051731;28;20207;-68
2022/06/26 09:37:11;;;;;;;0.43;0.43;;;;;;;36.73;25.11;99982.06;5051832;28;20659;-68
2022/06/26 09:39:37;;;;;;;1.10;0.55;;;;;;;36.47;23.93;99977.41;5051096;28;20177;-68
2022/06/26 09:42:18;;;;;;;1.70;0.60;;;;;;;34.96;25.72;99975.47;5040253;28;20676;-68
2022/06/26 09:44:51;;;;;;;1.20;0.60;;;;;;;35.29;26.04;99979.03;5051225;28;20177;-69
2022/06/26 09:47:28;;;;;;;1.45;0.40;;;;;;;35.36;26.20;99976.97;5051665;28;20205;-68
2022/06/26 09:49:57;;;;;;;1.10;0.60;;;;;;;36.72;25.06;99972.41;5050908;28;20184;-68
2022/06/26 09:52:28;;;;;;;0.40;0.40;;;;;;;36.60;24.36;99978.00;5023778;28;20241;-68
2022/06/26 09:54:54;;;;;;;0.40;0.40;;;;;;;38.30;22.53;99986.41;5049966;28;20173;-69
2022/06/26 09:57:20;;;;;;;0.55;0.40;;;;;;;38.24;21.33;99982.09;5050065;28;20181;-68
2022/06/26 09:59:46;;;;;;;1.92;0.60;;;;;;;38.12;22.60;99993.13;5051106;28;21252;-68
2022/06/26 10:07:47;;;;;;;0.50;0.50;;;;;;;36.29;23.57;100008.03;5038493;28;20215;-68
2022/06/26 10:10:14;;;;;;;0.55;0.55;;;;;;;35.65;23.61;99996.28;5029912;28;20652;-69
2022/06/26 10:12:40;;;;;;;0.52;0.50;;;;;;;34.80;25.88;100001.94;5065672;28;20185;-67
2022/06/26 10:15:06;;;;;;;0.68;0.65;;;;;;;34.97;25.31;100004.59;5051698;28;20255;-68
2022/06/26 10:17:41;;;;;;;0.90;0.50;;;;;;;33.09;27.67;100002.78;5049399;28;20177;-67
2022/06/26 10:20:09;;;;;;;0.85;0.60;;;;;;;34.37;26.22;100003.50;5040304;28;20187;-69
2022/06/26 10:22:40;;;;;;;0.50;0.50;;;;;;;34.87;25.29;100002.63;5050093;28;20204;-68
2022/06/26 10:25:06;;;;;;;0.47;0.45;;;;;;;33.05;27.54;99997.09;5050028;28;20226;-68
2022/06/26 10:27:33;;;;;;;0.55;0.50;;;;;;;32.67;28.78;99996.56;5050851;28;20873;-69
2022/06/26 10:30:16;;;;;;;2.15;0.95;;;;;;;34.41;27.94;99991.25;5050811;28;20185;-67
2022/06/26 10:32:43;;;;;;;1.13;0.70;;;;;;;36.67;24.51;99997.34;5039351;28;20635;-68
2022/06/26 10:35:09;;;;;;;0.40;0.40;;;;;;;36.71;23.39;99989.56;5049740;28;20713;-69
2022/06/26 10:37:46;;;;;;;0.50;0.50;;;;;;;37.80;23.02;99988.81;5050750;28;20194;-69
2022/06/26 10:43:06;;;;;;;0.47;0.40;;;;;;;37.25;22.74;99996.47;5049885;28;20216;-67
2022/06/26 10:45:36;;;;;;;0.50;0.50;;;;;;;35.13;24.71;99983.41;5050767;28;20689;-68
2022/06/26 10:48:05;;;;;;;0.77;0.60;;;;;;;34.34;27.02;99982.59;5051152;28;20268;-68
2022/06/26 10:50:35;;;;;;;0.52;0.32;;;;;;;31.98;29.39;99981.09;5038088;28;20236;-68
2022/06/26 10:53:11;;;;;;;2.25;0.52;;;;;;;31.36;31.58;99976.84;5049645;28;20221;-69
2022/06/26 10:55:38;;;;;;;0.52;0.52;;;;;;;30.97;32.35;99984.19;5050317;28;20235;-69
2022/06/26 10:58:03;;;;;;;0.57;0.57;;;;;;;30.87;31.59;99981.25;5051083;28;20185;-69
2022/06/26 11:00:29;;;;;;;0.60;0.60;;;;;;;29.89;32.85;99967.56;5024650;28;20230;-69
2022/06/26 11:02:54;;;;;;;1.17;0.50;;;;;;;30.32;33.57;99974.81;5030377;28;20197;-68
2022/06/26 11:05:20;;;;;;;2.83;0.82;;;;;;;31.19;31.51;99967.84;5052620;28;20617;-69
2022/06/26 11:07:51;;;;;;;1.98;0.70;;;;;;;31.39;30.44;99959.63;5054636;28;20190;-69
2022/06/26 11:10:20;;;;;;;1.35;0.60;;;;;;;31.48;30.55;99960.94;5042094;28;20181;-68
2022/06/26 11:12:49;;;;;;;1.95;0.60;;;;;;;31.73;31.71;99965.34;5053626;28;20185;-68
2022/06/26 11:15:32;;;;;;;1.55;0.82;;;;;;;31.51;30.39;99968.47;5042650;28;20181;-68
2022/06/26 11:18:05;;;;;;;0.90;0.57;;;;;;;31.19;30.98;99973.16;5053286;28;20243;-69
2022/06/26 11:20:47;;;;;;;0.60;0.60;;;;;;;31.11;31.32;99971.63;5042876;28;20775;-69
2022/06/26 11:23:13;;;;;;;1.20;0.60;;;;;;;31.45;31.43;99971.22;5053453;28;20233;-69
2022/06/26 11:25:41;;;;;;;0.90;0.63;;;;;;;30.88;30.91;99964.31;5052401;28;20727;-69
2022/06/26 11:28:08;;;;;;;0.85;0.73;;;;;;;30.87;32.35;99957.38;5036283;28;20173;-68
2022/06/26 11:30:36;;;;;;;1.75;0.82;;;;;;;30.92;32.17;99952.19;5018618;28;20659;-69
2022/06/26 11:33:01;;;;;;;0.45;0.45;;;;;;;30.45;32.25;99955.31;5040997;28;20583;-68
2022/06/26 11:35:27;;;;;;;1.38;0.43;;;;;;;30.11;32.71;99954.78;5053783;28;20184;-68
2022/06/26 11:37:52;;;;;;;0.80;0.70;;;;;;;30.06;33.46;99959.94;5053971;28;20276;-67